Aviation Digital Data Service (ADDS)

Output produced by METARs form (2011 UTC 18 January 2017)
found at http://aviationweather.gov/adds/metars/
 
KRIC 181722Z 1818/1918 35010G18KT P6SM SCT040 BKN150 
     FM182000 33008KT P6SM SCT120 
     FM190200 35004KT P6SM SKC